createdAt,value
2017-09-22T00:01:46.013Z,82.90
2017-09-22T00:04:13.578Z,83.10
2017-09-22T00:06:40.417Z,83.10
2017-09-22T00:09:07.293Z,83.30
2017-09-22T00:11:34.163Z,83.30
2017-09-22T00:14:01.415Z,83.20
2017-09-22T00:16:28.231Z,81.90
2017-09-22T00:18:55.045Z,82.00
2017-09-22T00:21:21.883Z,81.40
2017-09-22T00:23:48.730Z,80.30
2017-09-22T00:26:15.587Z,81.00
2017-09-22T00:28:42.408Z,80.80
2017-09-22T00:31:10.000Z,82.60
2017-09-22T00:33:37.572Z,81.20
2017-09-22T00:36:05.133Z,81.80
2017-09-22T00:38:32.013Z,81.90
2017-09-22T00:40:59.579Z,82.20
2017-09-22T00:43:27.175Z,82.50
2017-09-22T00:45:54.046Z,83.10
2017-09-22T00:48:21.024Z,81.20
2017-09-22T00:50:47.947Z,82.30
2017-09-22T00:53:15.520Z,80.60
2017-09-22T00:55:43.101Z,80.30
2017-09-22T00:58:10.020Z,80.30
2017-09-22T01:00:37.940Z,81.20
2017-09-22T01:03:04.898Z,82.90
2017-09-22T01:05:31.730Z,82.80
2017-09-22T01:07:59.306Z,82.40
2017-09-22T01:10:27.979Z,82.90
2017-09-22T01:12:56.345Z,82.80
2017-09-22T01:25:08.344Z,82.80
2017-09-22T01:27:35.181Z,82.40
2017-09-22T01:30:02.998Z,82.80
2017-09-22T01:32:29.854Z,82.80
2017-09-22T01:34:56.737Z,83.20
2017-09-22T01:37:23.626Z,83.40
2017-09-22T01:39:50.595Z,81.80
2017-09-22T01:42:17.441Z,80.90
2017-09-22T01:44:45.253Z,79.30
2017-09-22T01:47:12.182Z,80.10
2017-09-22T01:49:39.015Z,79.20
2017-09-22T01:52:05.943Z,80.40
2017-09-22T01:54:33.493Z,83.20
2017-09-22T01:57:00.387Z,83.40
2017-09-22T01:59:28.197Z,82.40
2017-09-22T02:01:55.026Z,82.40
2017-09-22T02:04:22.619Z,83.10
2017-09-22T02:06:49.420Z,83.10
2017-09-22T02:09:16.326Z,82.70
2017-09-22T02:11:43.928Z,82.80
2017-09-22T02:14:10.723Z,82.70
2017-09-22T02:16:37.524Z,82.60
2017-09-22T02:19:05.035Z,85.00
2017-09-22T02:21:31.856Z,85.00
2017-09-22T02:23:59.414Z,85.50
2017-09-22T02:26:26.238Z,85.50
2017-09-22T02:28:53.067Z,84.70
2017-09-22T02:31:19.850Z,85.20
2017-09-22T02:33:46.666Z,83.30
2017-09-22T02:36:13.503Z,81.50
2017-09-22T02:38:40.303Z,81.60
2017-09-22T02:41:07.929Z,83.80
2017-09-22T02:43:34.733Z,83.80
2017-09-22T02:46:02.329Z,83.50
2017-09-22T02:48:29.151Z,83.50
2017-09-22T02:50:56.074Z,84.90
2017-09-22T02:53:22.869Z,84.80
2017-09-22T02:55:49.744Z,84.80
2017-09-22T02:58:16.571Z,82.10
2017-09-22T03:00:43.435Z,81.10
2017-09-22T03:03:10.280Z,81.00
2017-09-22T03:05:37.233Z,81.40
2017-09-22T03:08:04.086Z,82.90
2017-09-22T03:10:31.773Z,83.90
2017-09-22T03:12:58.653Z,83.60
2017-09-22T03:15:25.499Z,84.70
2017-09-22T03:17:52.310Z,85.60
2017-09-22T03:20:19.126Z,84.80
2017-09-22T03:22:45.928Z,82.60
2017-09-22T03:25:12.754Z,83.10
2017-09-22T03:27:39.577Z,83.60
2017-09-22T03:30:06.453Z,83.80
2017-09-22T03:32:33.279Z,83.40
2017-09-22T03:35:00.079Z,83.00
2017-09-22T03:37:26.909Z,83.60
2017-09-22T03:39:54.472Z,84.60
2017-09-22T03:42:21.336Z,84.50
2017-09-22T03:44:48.127Z,84.00
2017-09-22T03:47:15.734Z,84.40
2017-09-22T03:49:42.761Z,84.40
2017-09-22T03:52:10.324Z,85.00
2017-09-22T03:54:37.151Z,85.00
2017-09-22T03:57:04.002Z,84.60
2017-09-22T03:59:30.893Z,84.30
2017-09-22T04:01:57.770Z,84.50
2017-09-22T04:04:24.620Z,85.40
2017-09-22T04:06:51.502Z,85.60
2017-09-22T04:09:19.089Z,84.90
2017-09-22T04:11:46.644Z,85.40
2017-09-22T04:14:13.437Z,85.30
2017-09-22T04:16:40.257Z,85.50
2017-09-22T04:19:07.064Z,83.90
2017-09-22T04:21:33.873Z,83.70
2017-09-22T04:24:00.730Z,83.20
2017-09-22T04:26:27.563Z,82.90
2017-09-22T04:28:54.370Z,83.70
2017-09-22T04:31:21.963Z,84.40
2017-09-22T04:33:49.512Z,84.70
2017-09-22T04:36:16.354Z,84.50
2017-09-22T04:38:43.182Z,84.20
2017-09-22T04:41:10.012Z,84.20
2017-09-22T04:43:36.816Z,84.70
2017-09-22T04:46:03.686Z,84.20
2017-09-22T04:48:30.510Z,83.70
2017-09-22T04:50:58.102Z,83.90
2017-09-22T04:53:24.954Z,83.90
2017-09-22T04:55:51.848Z,84.30
2017-09-22T04:58:18.734Z,84.00
2017-09-22T05:00:45.623Z,83.90
2017-09-22T05:03:13.255Z,85.70
2017-09-22T05:05:40.092Z,85.70
2017-09-22T05:08:06.936Z,86.00
2017-09-22T05:10:33.779Z,85.80
2017-09-22T05:13:00.593Z,86.10
2017-09-22T05:15:27.475Z,86.20
2017-09-22T05:17:54.320Z,85.00
2017-09-22T05:20:21.156Z,85.30
2017-09-22T05:22:48.026Z,85.20
2017-09-22T05:25:14.873Z,83.50
2017-09-22T05:27:41.717Z,83.70
2017-09-22T05:30:09.311Z,86.10
2017-09-22T05:32:36.151Z,86.00
2017-09-22T05:35:03.759Z,87.20
2017-09-22T05:37:30.640Z,87.10
2017-09-22T05:39:57.511Z,87.00
2017-09-22T05:42:24.351Z,86.20
2017-09-22T05:44:51.212Z,85.40
2017-09-22T05:47:18.127Z,85.40
2017-09-22T05:49:44.996Z,85.40
2017-09-22T05:52:11.895Z,85.30
2017-09-22T05:54:38.789Z,85.00
2017-09-22T05:57:05.596Z,84.20
2017-09-22T05:59:33.225Z,83.60
2017-09-22T06:02:00.105Z,83.60
2017-09-22T06:04:26.949Z,83.50
2017-09-22T06:06:53.806Z,83.30
2017-09-22T06:09:20.668Z,82.90
2017-09-22T06:11:47.550Z,82.60
2017-09-22T06:14:14.429Z,82.70
2017-09-22T06:16:42.022Z,81.30
2017-09-22T06:19:09.670Z,84.20
2017-09-22T06:21:36.567Z,84.20
2017-09-22T06:24:03.477Z,85.00
2017-09-22T06:26:30.310Z,86.30
2017-09-22T06:28:57.174Z,87.20
2017-09-22T06:31:24.058Z,86.60
2017-09-22T06:33:50.926Z,86.00
2017-09-22T06:36:17.771Z,84.80
2017-09-22T06:38:44.641Z,84.40
2017-09-22T06:41:11.575Z,84.40
2017-09-22T06:43:38.418Z,84.60
2017-09-22T06:46:05.263Z,85.90
2017-09-22T06:48:32.121Z,86.70
2017-09-22T06:50:59.052Z,86.10
2017-09-22T06:53:25.896Z,85.30
2017-09-22T06:55:52.727Z,85.20
2017-09-22T06:58:20.287Z,83.70
2017-09-22T07:00:47.158Z,83.70
2017-09-22T07:03:14.745Z,83.40
2017-09-22T07:05:42.343Z,83.60
2017-09-22T07:08:09.213Z,83.60
2017-09-22T07:10:36.129Z,83.70
2017-09-22T07:13:02.957Z,84.00
2017-09-22T07:15:29.806Z,84.20
2017-09-22T07:17:56.754Z,84.60
2017-09-22T07:20:23.607Z,84.90
2017-09-22T07:22:50.438Z,85.00
2017-09-22T07:25:17.785Z,84.80
2017-09-22T07:27:44.731Z,85.30
2017-09-22T07:30:11.686Z,83.50
2017-09-22T07:32:38.553Z,86.00
2017-09-22T07:35:05.383Z,84.60
2017-09-22T07:37:32.537Z,86.30
2017-09-22T07:40:01.237Z,84.40
2017-09-22T07:42:28.190Z,84.30
2017-09-22T07:44:55.044Z,86.10
2017-09-22T07:47:21.950Z,85.90
2017-09-22T07:49:48.804Z,85.40
2017-09-22T07:52:16.369Z,85.30
2017-09-22T07:54:43.187Z,85.30
2017-09-22T07:57:10.004Z,85.00
2017-09-22T07:59:36.917Z,85.30
2017-09-22T08:02:03.781Z,85.00
2017-09-22T08:04:30.930Z,84.80
2017-09-22T08:06:57.760Z,84.40
2017-09-22T08:09:24.756Z,84.20
2017-09-22T08:11:51.613Z,84.60
2017-09-22T08:14:18.486Z,85.00
2017-09-22T08:16:45.369Z,82.90
2017-09-22T08:19:12.305Z,83.50
2017-09-22T08:21:39.147Z,82.60
2017-09-22T08:24:06.015Z,83.10
2017-09-22T08:26:32.888Z,82.70
2017-09-22T08:28:59.735Z,81.90
2017-09-22T08:31:26.577Z,81.50
2017-09-22T08:33:53.405Z,81.90
2017-09-22T08:36:20.264Z,81.30
2017-09-22T08:38:47.092Z,82.20
2017-09-22T08:41:14.634Z,83.40
2017-09-22T08:43:41.504Z,83.40
2017-09-22T08:46:08.359Z,82.50
2017-09-22T08:48:35.196Z,82.00
2017-09-22T08:51:02.019Z,83.00
2017-09-22T08:53:28.872Z,82.00
2017-09-22T08:55:55.819Z,82.80
2017-09-22T08:58:22.675Z,81.00
2017-09-22T09:00:49.529Z,81.00
2017-09-22T09:03:16.368Z,80.90
2017-09-22T09:05:43.954Z,79.30
2017-09-22T09:08:11.582Z,78.90
2017-09-22T09:10:38.432Z,78.90
2017-09-22T09:13:05.290Z,78.50
2017-09-22T09:15:32.195Z,78.80
2017-09-22T09:17:59.039Z,79.50
2017-09-22T09:20:25.866Z,77.40
2017-09-22T09:22:52.692Z,79.20
2017-09-22T09:25:20.249Z,77.60
2017-09-22T09:27:47.093Z,77.60
2017-09-22T09:30:13.950Z,79.50
2017-09-22T09:32:40.775Z,77.10
2017-09-22T09:35:07.658Z,77.90
2017-09-22T09:37:35.299Z,77.60
2017-09-22T09:40:02.211Z,77.70
2017-09-22T09:42:29.040Z,76.70
2017-09-22T09:44:55.859Z,73.60
2017-09-22T09:47:22.699Z,73.40
2017-09-22T09:49:49.596Z,74.00
2017-09-22T09:52:16.419Z,74.60
2017-09-22T09:54:43.391Z,74.20
2017-09-22T09:57:10.523Z,73.20
2017-09-22T09:59:37.962Z,74.00
2017-09-22T10:02:05.450Z,73.30
2017-09-22T10:04:33.089Z,72.60
2017-09-22T10:07:00.042Z,72.50
2017-09-22T10:09:27.158Z,72.80
2017-09-22T10:11:53.965Z,72.50
2017-09-22T10:14:20.784Z,72.40
2017-09-22T10:16:47.654Z,72.40
2017-09-22T10:19:15.993Z,70.40
2017-09-22T10:21:42.942Z,71.40
2017-09-22T10:24:09.781Z,70.60
2017-09-22T10:26:36.622Z,70.20
2017-09-22T10:29:04.188Z,70.70
2017-09-22T10:31:31.771Z,70.20
2017-09-22T10:33:58.627Z,70.20
2017-09-22T10:36:26.254Z,71.10
2017-09-22T10:38:53.064Z,70.40
2017-09-22T10:41:19.922Z,70.20
2017-09-22T10:43:46.792Z,70.10
2017-09-22T10:46:14.415Z,70.60
2017-09-22T10:48:41.278Z,70.50
2017-09-22T10:51:08.164Z,69.20
2017-09-22T10:53:35.037Z,69.70
2017-09-22T10:56:01.860Z,69.60
2017-09-22T10:58:28.688Z,69.10
2017-09-22T11:00:56.247Z,67.90
2017-09-22T11:03:23.129Z,67.90
2017-09-22T11:05:50.669Z,68.60
2017-09-22T11:08:17.490Z,68.60
2017-09-22T11:10:44.307Z,68.70
2017-09-22T11:13:11.164Z,65.90
2017-09-22T11:15:38.035Z,67.00
2017-09-22T11:18:04.886Z,67.00
2017-09-22T11:20:31.801Z,67.60
2017-09-22T11:22:59.508Z,67.30
2017-09-22T11:25:26.396Z,67.70
2017-09-22T11:27:53.994Z,66.90
2017-09-22T11:30:21.581Z,65.30
2017-09-22T11:32:48.391Z,65.30
2017-09-22T11:35:15.390Z,66.40
2017-09-22T11:37:42.235Z,66.30
2017-09-22T11:40:09.076Z,66.80
2017-09-22T11:42:36.028Z,66.30
2017-09-22T11:45:02.856Z,66.00
2017-09-22T11:47:29.666Z,66.70
2017-09-22T11:49:56.442Z,65.40
2017-09-22T11:52:23.254Z,63.80
2017-09-22T11:54:50.058Z,64.10
2017-09-22T11:57:16.929Z,64.10
2017-09-22T11:59:43.763Z,63.00
2017-09-22T12:02:10.563Z,63.60
2017-09-22T12:04:38.121Z,63.60
2017-09-22T12:07:05.359Z,63.50
2017-09-22T12:09:32.759Z,63.70
2017-09-22T12:12:01.072Z,64.50
2017-09-22T12:14:28.662Z,63.60
2017-09-22T12:16:56.256Z,65.00
2017-09-22T12:19:23.113Z,65.00
2017-09-22T12:21:49.922Z,63.00
2017-09-22T12:24:16.806Z,63.60
2017-09-22T12:26:44.459Z,63.00
2017-09-22T12:29:11.406Z,63.00
2017-09-22T12:31:38.267Z,62.60
2017-09-22T12:34:05.869Z,60.90
2017-09-22T12:36:32.742Z,60.80
2017-09-22T12:38:59.603Z,60.70
2017-09-22T12:41:26.465Z,60.90
2017-09-22T12:43:53.339Z,61.30
2017-09-22T12:46:20.179Z,61.90
2017-09-22T12:48:47.009Z,63.80
2017-09-22T12:51:13.851Z,63.10
2017-09-22T12:53:40.685Z,62.90
2017-09-22T12:56:07.502Z,61.50
2017-09-22T12:58:34.342Z,63.00
2017-09-22T13:01:01.209Z,62.00
2017-09-22T13:03:28.088Z,61.20
2017-09-22T13:05:54.968Z,62.10
2017-09-22T13:08:21.811Z,61.70
2017-09-22T13:10:48.883Z,60.40
2017-09-22T13:13:16.512Z,60.80
2017-09-22T13:15:44.126Z,60.10
2017-09-22T13:18:11.002Z,60.00
2017-09-22T13:20:37.896Z,60.60
2017-09-22T13:23:04.728Z,60.10
2017-09-22T13:25:31.564Z,59.90
2017-09-22T13:27:58.400Z,61.30
2017-09-22T13:30:26.043Z,61.80
2017-09-22T13:32:52.913Z,61.70
2017-09-22T13:35:19.808Z,61.70
2017-09-22T13:37:46.675Z,61.30
2017-09-22T13:40:13.503Z,59.90
2017-09-22T13:42:40.411Z,60.30
2017-09-22T13:45:07.291Z,59.80
2017-09-22T13:47:34.144Z,60.80
2017-09-22T13:50:01.007Z,60.50
2017-09-22T13:52:27.834Z,59.80
2017-09-22T13:54:55.480Z,60.40
2017-09-22T13:57:22.301Z,60.40
2017-09-22T13:59:49.104Z,60.80
2017-09-22T14:02:15.989Z,61.90
2017-09-22T14:04:43.615Z,61.40
2017-09-22T14:07:10.456Z,61.30
2017-09-22T14:09:37.390Z,60.40
2017-09-22T14:12:04.948Z,61.00
2017-09-22T14:14:31.788Z,60.90
2017-09-22T14:16:58.630Z,60.80
2017-09-22T14:19:25.540Z,60.80
2017-09-22T14:21:52.555Z,60.40
2017-09-22T14:24:19.468Z,60.50
2017-09-22T14:26:46.356Z,60.90
2017-09-22T14:29:13.203Z,60.20
2017-09-22T14:31:40.828Z,61.10
2017-09-22T14:34:07.699Z,61.10
2017-09-22T14:36:34.535Z,61.50
2017-09-22T14:39:01.360Z,62.10
2017-09-22T14:41:28.224Z,62.00
2017-09-22T14:43:55.830Z,62.10
2017-09-22T14:46:22.668Z,62.10
2017-09-22T14:48:50.261Z,62.50
2017-09-22T14:51:17.136Z,62.50
2017-09-22T14:53:43.989Z,62.60
2017-09-22T14:56:10.807Z,63.00
2017-09-22T14:58:37.685Z,63.40
2017-09-22T15:01:04.583Z,64.20
2017-09-22T15:03:31.466Z,62.80
2017-09-22T15:05:58.334Z,63.60
2017-09-22T15:08:28.582Z,63.60
2017-09-22T15:10:55.490Z,64.40
2017-09-22T15:13:22.316Z,65.40
2017-09-22T15:15:49.128Z,64.80
2017-09-22T15:18:16.021Z,64.60
2017-09-22T15:20:42.895Z,64.80
2017-09-22T15:23:09.763Z,64.30
2017-09-22T15:25:36.586Z,65.20
2017-09-22T15:28:04.596Z,64.90
2017-09-22T15:30:31.458Z,65.20
2017-09-22T15:32:58.263Z,65.50
2017-09-22T15:35:25.799Z,66.20
2017-09-22T15:37:52.761Z,66.10
2017-09-22T15:40:19.578Z,65.80
2017-09-22T15:42:46.422Z,66.70
2017-09-22T15:45:14.002Z,66.20
2017-09-22T15:47:41.554Z,66.00
2017-09-22T15:50:08.352Z,66.00
2017-09-22T15:52:35.176Z,65.40
2017-09-22T15:55:02.833Z,65.10
2017-09-22T15:57:29.721Z,65.00
2017-09-22T15:59:56.631Z,65.20
2017-09-22T16:02:23.483Z,65.10
2017-09-22T16:04:50.289Z,65.50
2017-09-22T16:07:17.127Z,65.50
2017-09-22T16:09:44.688Z,67.00
2017-09-22T16:12:11.518Z,67.00
2017-09-22T16:14:39.118Z,67.30
2017-09-22T16:17:05.976Z,67.20
2017-09-22T16:19:32.916Z,67.70
2017-09-22T16:21:59.785Z,68.40
2017-09-22T16:24:26.680Z,69.20
2017-09-22T16:26:53.517Z,69.60
2017-09-22T16:29:21.825Z,68.90
2017-09-22T16:31:48.720Z,68.80
2017-09-22T16:34:15.562Z,70.40
2017-09-22T16:36:42.634Z,70.70
2017-09-22T16:39:09.492Z,71.20
2017-09-22T16:41:37.098Z,71.90
2017-09-22T16:44:03.985Z,71.90
2017-09-22T16:46:31.628Z,72.80
2017-09-22T16:48:58.486Z,72.80
2017-09-22T16:51:25.371Z,73.50
2017-09-22T16:53:52.261Z,74.10
2017-09-22T16:56:19.085Z,74.20
2017-09-22T16:58:45.974Z,74.10
2017-09-22T17:01:12.840Z,74.50
2017-09-22T17:03:40.435Z,74.80
2017-09-22T17:06:07.293Z,74.80
2017-09-22T17:08:34.900Z,75.80
2017-09-22T17:11:02.667Z,75.80
2017-09-22T17:13:29.492Z,76.40
2017-09-22T17:15:56.323Z,76.50
2017-09-22T17:18:23.211Z,77.10
2017-09-22T17:20:50.029Z,77.20
2017-09-22T17:23:16.869Z,77.10
2017-09-22T17:25:43.687Z,77.70
2017-09-22T17:28:10.571Z,78.00
2017-09-22T17:30:38.131Z,78.40
2017-09-22T17:33:05.052Z,78.40
2017-09-22T17:35:31.942Z,78.20
2017-09-22T17:37:58.795Z,78.50
2017-09-22T17:40:25.686Z,78.80
2017-09-22T17:42:52.667Z,78.10
2017-09-22T17:45:20.366Z,80.20
2017-09-22T17:47:47.294Z,80.10
2017-09-22T17:50:14.152Z,80.40
2017-09-22T17:52:41.208Z,80.50
2017-09-22T17:55:08.169Z,80.50
2017-09-22T17:57:35.061Z,81.20
2017-09-22T18:00:02.766Z,81.80
2017-09-22T18:02:29.606Z,81.90
2017-09-22T18:04:57.192Z,81.80
2017-09-22T18:07:24.810Z,81.60
2017-09-22T18:09:51.696Z,81.50
2017-09-22T18:12:18.670Z,81.60
2017-09-22T18:14:45.552Z,81.20
2017-09-22T18:17:13.182Z,81.40
2017-09-22T18:19:40.088Z,81.40
2017-09-22T18:22:06.964Z,80.50
2017-09-22T18:24:33.823Z,80.30
2017-09-22T18:27:00.680Z,80.10
2017-09-22T18:29:28.256Z,80.50
2017-09-22T18:31:55.179Z,80.60
2017-09-22T18:34:22.017Z,79.50
2017-09-22T18:36:49.648Z,81.90
2017-09-22T18:39:16.481Z,81.90
2017-09-22T18:41:43.352Z,82.10
2017-09-22T18:44:10.225Z,82.50
2017-09-22T18:46:37.166Z,82.30
2017-09-22T18:49:04.824Z,82.30
2017-09-22T18:51:31.730Z,82.50
2017-09-22T18:53:58.696Z,82.80
2017-09-22T18:56:25.540Z,83.20
2017-09-22T18:58:52.451Z,83.30
2017-09-22T19:01:19.308Z,83.70
2017-09-22T19:03:46.187Z,83.70
2017-09-22T19:06:13.098Z,83.40
2017-09-22T19:08:40.124Z,83.90
2017-09-22T19:11:07.097Z,83.80
2017-09-22T19:13:34.004Z,83.40
2017-09-22T19:16:01.604Z,84.10
2017-09-22T19:18:28.432Z,84.10
2017-09-22T19:20:55.506Z,83.90
2017-09-22T19:23:23.153Z,84.70
2017-09-22T19:25:50.010Z,84.70
2017-09-22T19:28:16.823Z,84.40
2017-09-22T19:30:44.530Z,84.60
2017-09-22T19:33:11.668Z,84.30
2017-09-22T19:35:39.282Z,84.80
2017-09-22T19:38:06.437Z,84.80
2017-09-22T19:40:33.314Z,85.20
2017-09-22T19:43:00.177Z,84.80
2017-09-22T19:45:27.050Z,85.10
2017-09-22T19:47:54.261Z,85.30
2017-09-22T19:50:21.163Z,85.20
2017-09-22T19:52:47.979Z,85.30
2017-09-22T19:55:14.791Z,85.20
2017-09-22T19:57:41.684Z,85.20
2017-09-22T20:00:08.547Z,84.40
2017-09-22T20:02:35.430Z,85.20
2017-09-22T20:05:02.574Z,84.70
2017-09-22T20:07:29.442Z,85.70
2017-09-22T20:09:56.344Z,85.20
2017-09-22T20:12:23.276Z,85.60
2017-09-22T20:14:50.175Z,85.30
2017-09-22T20:17:17.174Z,84.90
2017-09-22T20:19:44.367Z,85.20
2017-09-22T20:22:11.192Z,85.30
2017-09-22T20:24:38.032Z,85.60
2017-09-22T20:27:04.875Z,85.60
2017-09-22T20:29:32.470Z,85.50
2017-09-22T20:31:59.330Z,85.40
2017-09-22T20:34:26.241Z,85.70
2017-09-22T20:36:53.104Z,85.70
2017-09-22T20:39:19.942Z,85.90
2017-09-22T20:41:46.818Z,85.50
2017-09-22T20:44:13.754Z,85.40
2017-09-22T20:46:40.620Z,86.10
2017-09-22T20:49:07.492Z,85.90
2017-09-22T20:51:34.320Z,85.70
2017-09-22T20:54:15.829Z,85.80
2017-09-22T20:56:42.644Z,86.40
2017-09-22T20:59:09.497Z,86.10
2017-09-22T21:01:36.304Z,86.10
2017-09-22T21:04:03.179Z,86.20
2017-09-22T21:06:30.070Z,86.80
2017-09-22T21:08:56.956Z,86.40
2017-09-22T21:11:23.808Z,86.40
2017-09-22T21:13:50.652Z,86.10
2017-09-22T21:16:17.541Z,86.10
2017-09-22T21:18:44.362Z,86.60
2017-09-22T21:21:11.315Z,86.10
2017-09-22T21:23:38.184Z,86.20
2017-09-22T21:26:05.121Z,86.30
2017-09-22T21:28:32.005Z,85.90
2017-09-22T21:30:58.853Z,86.30
2017-09-22T21:33:25.707Z,86.00
2017-09-22T21:35:52.533Z,86.50
2017-09-22T21:38:19.410Z,86.70
2017-09-22T21:40:47.020Z,86.40
2017-09-22T21:43:13.858Z,86.50
2017-09-22T21:45:40.708Z,87.10
2017-09-22T21:48:08.334Z,87.40
2017-09-22T21:50:36.078Z,87.30
2017-09-22T21:53:03.723Z,86.90
2017-09-22T21:55:30.734Z,86.90
2017-09-22T21:57:57.653Z,87.20
2017-09-22T22:00:24.623Z,86.90
2017-09-22T22:02:51.545Z,86.30
2017-09-22T22:05:38.778Z,86.20
2017-09-22T22:08:05.672Z,86.70
2017-09-22T22:10:32.602Z,86.60
2017-09-22T22:12:59.520Z,86.60
2017-09-22T22:15:26.437Z,87.10
2017-09-22T22:17:53.344Z,86.70
2017-09-22T22:20:21.958Z,86.80
2017-09-22T22:22:49.646Z,87.10
2017-09-22T22:25:16.595Z,87.00
2017-09-22T22:27:44.294Z,87.00
2017-09-22T22:30:11.205Z,87.00
2017-09-22T22:32:38.894Z,87.30
2017-09-22T22:35:07.809Z,87.40
2017-09-22T22:37:34.844Z,87.40
2017-09-22T22:40:01.782Z,87.40
2017-09-22T22:42:28.708Z,87.70
2017-09-22T22:44:55.610Z,88.30
2017-09-22T22:47:23.351Z,87.70
2017-09-22T22:49:51.087Z,86.60
2017-09-22T22:52:18.033Z,86.60
2017-09-22T22:54:44.898Z,86.40
2017-09-22T22:57:11.829Z,87.10
2017-09-22T22:59:39.446Z,87.00
2017-09-22T23:02:06.308Z,87.00
2017-09-22T23:04:33.223Z,87.40
2017-09-22T23:07:00.095Z,87.50
2017-09-22T23:09:27.676Z,87.40
2017-09-22T23:11:55.429Z,87.90
2017-09-22T23:14:23.050Z,88.30
2017-09-22T23:16:50.373Z,88.40
2017-09-22T23:19:18.615Z,88.10
2017-09-22T23:21:45.927Z,88.10
2017-09-22T23:24:12.883Z,88.60
2017-09-22T23:26:40.164Z,88.50
2017-09-22T23:29:07.636Z,88.00
2017-09-22T23:31:34.639Z,88.60
2017-09-22T23:34:01.547Z,88.70
2017-09-22T23:36:28.455Z,88.60
2017-09-22T23:38:55.324Z,88.50
2017-09-22T23:41:23.526Z,89.10
2017-09-22T23:43:51.136Z,88.70
2017-09-22T23:46:18.841Z,88.70
2017-09-22T23:48:45.927Z,88.70
2017-09-22T23:51:12.884Z,88.50
2017-09-22T23:53:40.108Z,88.50
2017-09-22T23:56:07.159Z,88.90
2017-09-22T23:58:34.791Z,88.40
